createdAt,value
2018-12-02T00:01:01.724Z,7.23
2018-12-02T00:03:30.423Z,6.95
2018-12-02T00:05:59.134Z,7.37
2018-12-02T00:08:29.166Z,6.80
2018-12-02T00:10:57.900Z,7.30
2018-12-02T00:13:26.653Z,6.80
2018-12-02T00:15:55.355Z,6.87
2018-12-02T00:18:24.074Z,7.58
2018-12-02T00:20:53.431Z,6.97
2018-12-02T00:23:22.159Z,6.92
2018-12-02T00:25:50.992Z,6.65
2018-12-02T00:28:19.722Z,6.80
2018-12-02T00:30:48.459Z,7.00
2018-12-02T00:33:17.250Z,6.47
2018-12-02T00:35:45.962Z,7.22
2018-12-02T00:38:15.365Z,6.50
2018-12-02T00:40:44.722Z,7.25
2018-12-02T00:43:14.663Z,5.90
2018-12-02T00:45:43.402Z,6.30
2018-12-02T00:48:13.463Z,7.50
2018-12-02T00:50:42.169Z,5.70
2018-12-02T00:53:10.905Z,7.00
2018-12-02T00:55:43.667Z,6.63
2018-12-02T00:58:12.932Z,6.42
2018-12-02T01:00:42.888Z,6.40
2018-12-02T01:03:12.683Z,7.92
2018-12-02T01:05:41.407Z,6.50
2018-12-02T01:08:10.100Z,6.75
2018-12-02T01:10:39.870Z,6.70
2018-12-02T01:13:10.252Z,8.18
2018-12-02T01:15:40.194Z,6.58
2018-12-02T01:18:09.974Z,7.28
2018-12-02T01:20:39.513Z,7.35
2018-12-02T01:23:08.282Z,6.97
2018-12-02T01:25:37.414Z,6.30
2018-12-02T01:28:07.386Z,7.75
2018-12-02T01:30:37.021Z,6.85
2018-12-02T01:33:05.796Z,7.03
2018-12-02T01:35:34.539Z,6.40
2018-12-02T01:38:03.817Z,6.53
2018-12-02T01:40:32.529Z,6.50
2018-12-02T01:43:02.224Z,6.60
2018-12-02T01:45:31.033Z,8.50
2018-12-02T01:47:59.761Z,7.33
2018-12-02T01:50:28.500Z,6.40
2018-12-02T01:52:57.578Z,7.92
2018-12-02T01:55:26.314Z,7.85
2018-12-02T01:57:55.018Z,6.80
2018-12-02T02:00:28.327Z,6.15
2018-12-02T02:02:57.437Z,6.20
2018-12-02T02:05:27.047Z,6.47
2018-12-02T02:07:55.775Z,6.83
2018-12-02T02:10:28.312Z,6.60
2018-12-02T02:12:57.367Z,7.12
2018-12-02T02:15:27.843Z,7.17
2018-12-02T02:17:56.556Z,7.07
2018-12-02T02:20:25.861Z,7.10
2018-12-02T02:22:54.689Z,6.78
2018-12-02T02:25:24.257Z,6.87
2018-12-02T02:27:55.257Z,7.13
2018-12-02T02:30:25.840Z,7.15
2018-12-02T02:32:54.614Z,7.62
2018-12-02T02:35:23.515Z,6.65
2018-12-02T02:37:53.445Z,7.95
2018-12-02T02:40:23.017Z,7.20
2018-12-02T02:42:51.757Z,7.07
2018-12-02T02:45:21.545Z,6.87
2018-12-02T02:47:50.878Z,7.22
2018-12-02T02:50:21.275Z,6.78
2018-12-02T02:52:54.194Z,6.37
2018-12-02T02:55:22.923Z,7.05
2018-12-02T02:57:52.206Z,6.20
2018-12-02T03:00:21.772Z,7.20
2018-12-02T03:02:50.481Z,7.20
2018-12-02T03:05:19.345Z,6.03
2018-12-02T03:07:48.746Z,6.25
2018-12-02T03:10:19.440Z,6.77
2018-12-02T03:12:51.444Z,6.58
2018-12-02T03:15:20.831Z,7.03
2018-12-02T03:17:50.169Z,6.67
2018-12-02T03:20:20.771Z,7.27
2018-12-02T03:22:52.407Z,7.00
2018-12-02T03:25:22.011Z,7.17
2018-12-02T03:27:51.338Z,6.70
2018-12-02T03:30:21.501Z,7.22
2018-12-02T03:32:50.364Z,7.12
2018-12-02T03:35:21.177Z,6.12
2018-12-02T03:37:51.339Z,7.72
2018-12-02T03:40:24.050Z,8.43
2018-12-02T03:42:53.060Z,7.05
2018-12-02T03:45:24.537Z,7.97
2018-12-02T03:47:53.281Z,5.97
2018-12-02T03:50:23.025Z,6.53
2018-12-02T03:52:51.888Z,7.05
2018-12-02T03:55:21.234Z,7.50
2018-12-02T03:57:50.715Z,8.28
2018-12-02T04:00:23.574Z,6.65
2018-12-02T04:02:52.952Z,7.67
2018-12-02T04:05:22.605Z,7.40
2018-12-02T04:07:51.771Z,6.67
2018-12-02T04:10:21.330Z,7.25
2018-12-02T04:12:50.964Z,7.83
2018-12-02T04:15:20.754Z,7.67
2018-12-02T04:17:50.126Z,6.62
2018-12-02T04:20:19.472Z,7.25
2018-12-02T04:22:49.239Z,6.65
2018-12-02T04:25:21.725Z,6.92
2018-12-02T04:27:50.899Z,7.42
2018-12-02T04:30:20.233Z,6.72
2018-12-02T04:32:50.507Z,7.20
2018-12-02T04:35:20.152Z,6.50
2018-12-02T04:37:49.196Z,6.78
2018-12-02T04:40:18.491Z,6.60
2018-12-02T04:42:47.210Z,7.33
2018-12-02T04:45:17.744Z,6.87
2018-12-02T04:47:46.594Z,6.58
2018-12-02T04:50:20.327Z,7.20
2018-12-02T04:52:49.036Z,5.12
2018-12-02T04:55:17.755Z,7.35
2018-12-02T04:57:46.450Z,6.37
2018-12-02T05:00:16.400Z,7.65
2018-12-02T05:02:47.906Z,6.35
2018-12-02T05:05:22.503Z,6.65
2018-12-02T05:07:51.243Z,6.83
2018-12-02T05:10:21.304Z,7.15
2018-12-02T05:12:51.396Z,7.03
2018-12-02T05:15:21.079Z,8.38
2018-12-02T05:17:49.808Z,8.08
2018-12-02T05:20:21.301Z,6.40
2018-12-02T05:22:50.037Z,7.15
2018-12-02T05:25:19.343Z,7.35
2018-12-02T05:27:48.128Z,7.25
2018-12-02T05:30:21.821Z,8.13
2018-12-02T05:32:52.542Z,7.47
2018-12-02T05:35:21.288Z,7.20
2018-12-02T05:37:50.537Z,7.43
2018-12-02T05:40:23.433Z,7.45
2018-12-02T05:42:53.212Z,6.67
2018-12-02T05:45:22.989Z,7.03
2018-12-02T05:47:51.781Z,7.30
2018-12-02T05:50:24.302Z,6.58
2018-12-02T05:52:55.021Z,7.25
2018-12-02T05:55:25.880Z,7.12
2018-12-02T05:57:55.291Z,7.20
2018-12-02T06:00:24.977Z,7.10
2018-12-02T06:02:53.729Z,7.65
2018-12-02T06:05:23.633Z,7.62
2018-12-02T06:07:52.882Z,7.40
2018-12-02T06:10:22.512Z,6.78
2018-12-02T06:12:51.833Z,6.30
2018-12-02T06:15:21.322Z,6.72
2018-12-02T06:17:50.067Z,7.03
2018-12-02T06:20:25.163Z,7.67
2018-12-02T06:22:57.949Z,6.77
2018-12-02T06:25:26.694Z,7.20
2018-12-02T06:27:55.450Z,8.25
2018-12-02T06:30:25.175Z,6.83
2018-12-02T06:32:56.026Z,6.78
2018-12-02T06:35:25.312Z,7.20
2018-12-02T06:37:55.780Z,7.03
2018-12-02T06:40:25.532Z,7.30
2018-12-02T06:42:54.264Z,7.12
2018-12-02T06:45:23.386Z,6.95
2018-12-02T06:47:52.446Z,6.78
2018-12-02T06:50:22.949Z,6.55
2018-12-02T06:52:52.123Z,7.50
2018-12-02T06:55:29.216Z,7.45
2018-12-02T06:58:05.096Z,6.85
2018-12-02T07:01:13.178Z,7.07
2018-12-02T07:03:45.786Z,8.05
2018-12-02T07:06:14.966Z,7.25
2018-12-02T07:08:44.255Z,8.98
2018-12-02T07:11:12.934Z,8.00
2018-12-02T07:13:43.550Z,7.33
2018-12-02T07:16:13.590Z,7.60
2018-12-02T07:18:42.811Z,7.83
2018-12-02T07:21:14.574Z,7.50
2018-12-02T07:23:43.274Z,7.03
2018-12-02T07:26:12.882Z,7.77
2018-12-02T07:28:42.356Z,7.47
2018-12-02T07:31:11.083Z,7.50
2018-12-02T07:33:40.441Z,6.97
2018-12-02T07:36:09.836Z,8.08
2018-12-02T07:38:43.779Z,7.67
2018-12-02T07:41:13.121Z,7.07
2018-12-02T07:43:41.845Z,6.80
2018-12-02T07:46:10.577Z,8.48
2018-12-02T07:48:40.574Z,7.63
2018-12-02T07:51:09.921Z,7.28
2018-12-02T07:53:38.706Z,7.78
2018-12-02T07:56:08.117Z,7.10
2018-12-02T07:58:37.587Z,6.97
2018-12-02T08:01:07.190Z,7.00
2018-12-02T08:03:35.890Z,6.60
2018-12-02T08:06:05.285Z,6.87
2018-12-02T08:08:34.562Z,6.33
2018-12-02T08:11:04.549Z,6.53
2018-12-02T08:13:33.726Z,6.95
2018-12-02T08:16:02.428Z,7.12
2018-12-02T08:18:31.727Z,7.62
2018-12-02T08:21:01.085Z,7.50
2018-12-02T08:23:31.163Z,6.70
2018-12-02T08:26:00.076Z,6.53
2018-12-02T08:28:28.756Z,6.75
2018-12-02T08:30:58.841Z,7.15
2018-12-02T08:33:27.546Z,7.28
2018-12-02T08:35:56.924Z,7.53
2018-12-02T08:38:25.617Z,6.70
2018-12-02T08:40:54.870Z,6.50
2018-12-02T08:43:24.286Z,6.60
2018-12-02T08:45:53.614Z,6.80
2018-12-02T08:48:22.322Z,6.33
2018-12-02T08:50:52.050Z,7.30
2018-12-02T08:53:21.534Z,6.80
2018-12-02T08:55:52.284Z,7.12
2018-12-02T08:58:20.986Z,7.75
2018-12-02T09:00:50.397Z,6.55
2018-12-02T09:03:19.859Z,7.05
2018-12-02T09:05:49.355Z,7.40
2018-12-02T09:08:18.065Z,6.83
2018-12-02T09:10:46.770Z,6.25
2018-12-02T09:13:15.454Z,6.75
2018-12-02T09:15:44.163Z,7.00
2018-12-02T09:18:13.362Z,7.00
2018-12-02T09:20:43.302Z,6.45
2018-12-02T09:23:13.171Z,5.95
2018-12-02T09:25:41.809Z,7.55
2018-12-02T09:28:17.973Z,6.78
2018-12-02T09:30:47.427Z,6.45
2018-12-02T09:33:16.886Z,7.17
2018-12-02T09:35:46.317Z,6.80
2018-12-02T09:38:15.557Z,6.62
2018-12-02T09:40:45.314Z,6.47
2018-12-02T09:43:15.587Z,7.65
2018-12-02T09:45:44.377Z,7.05
2018-12-02T09:48:13.158Z,7.72
2018-12-02T09:50:42.475Z,6.50
2018-12-02T09:53:11.769Z,6.15
2018-12-02T09:55:43.222Z,6.60
2018-12-02T09:58:13.620Z,6.35
2018-12-02T10:00:43.789Z,7.40
2018-12-02T10:03:12.523Z,6.77
2018-12-02T10:05:41.198Z,6.80
2018-12-02T10:08:09.920Z,6.30
2018-12-02T10:10:40.428Z,7.60
2018-12-02T10:13:13.966Z,6.95
2018-12-02T10:15:43.660Z,6.47
2018-12-02T10:18:12.419Z,6.85
2018-12-02T10:20:41.125Z,7.37
2018-12-02T10:23:10.141Z,6.80
2018-12-02T10:25:38.845Z,6.33
2018-12-02T10:28:08.213Z,7.65
2018-12-02T10:30:37.535Z,6.92
2018-12-02T10:33:06.781Z,6.28
2018-12-02T10:35:35.481Z,7.10
2018-12-02T10:38:04.716Z,6.17
2018-12-02T10:40:33.395Z,5.80
2018-12-02T10:43:02.211Z,7.62
2018-12-02T10:45:30.885Z,6.25
2018-12-02T10:48:01.114Z,7.58
2018-12-02T10:50:34.800Z,6.40
2018-12-02T10:53:07.903Z,6.95
2018-12-02T10:55:48.661Z,6.60
2018-12-02T10:58:18.953Z,6.97
2018-12-02T11:00:54.262Z,6.20
2018-12-02T11:03:22.958Z,6.60
2018-12-02T11:05:52.842Z,6.22
2018-12-02T11:08:22.746Z,6.55
2018-12-02T11:10:52.696Z,5.60
2018-12-02T11:13:22.022Z,6.90
2018-12-02T11:15:50.738Z,7.40
2018-12-02T11:18:20.141Z,6.92
2018-12-02T11:20:49.030Z,6.97
2018-12-02T11:23:19.569Z,7.05
2018-12-02T11:25:48.237Z,6.58
2018-12-02T11:28:17.213Z,6.47
2018-12-02T11:30:45.911Z,7.17
2018-12-02T11:33:15.322Z,5.83
2018-12-02T11:35:44.482Z,6.50
2018-12-02T11:38:13.250Z,7.17
2018-12-02T11:40:42.470Z,6.95
2018-12-02T11:43:11.334Z,7.12
2018-12-02T11:45:40.651Z,7.33
2018-12-02T11:48:10.656Z,6.62
2018-12-02T11:50:39.424Z,6.75
2018-12-02T11:53:08.369Z,7.00
2018-12-02T11:55:37.065Z,7.37
2018-12-02T11:58:06.622Z,6.87
2018-12-02T12:00:37.007Z,6.50
2018-12-02T12:03:05.715Z,6.42
2018-12-02T12:05:34.899Z,6.55
2018-12-02T12:08:03.612Z,7.10
2018-12-02T12:10:32.845Z,6.80
2018-12-02T12:13:01.810Z,6.20
2018-12-02T12:15:31.974Z,7.37
2018-12-02T12:18:01.582Z,7.70
2018-12-02T12:20:37.604Z,7.15
2018-12-02T12:23:07.512Z,7.30
2018-12-02T12:25:36.273Z,7.05
2018-12-02T12:28:05.184Z,7.12
2018-12-02T12:30:35.599Z,6.47
2018-12-02T12:33:06.041Z,6.83
2018-12-02T12:35:35.325Z,7.60
2018-12-02T12:38:04.638Z,8.58
2018-12-02T12:40:35.155Z,6.65
2018-12-02T12:43:10.406Z,6.75
2018-12-02T12:45:39.609Z,6.13
2018-12-02T12:48:08.958Z,5.90
2018-12-02T12:50:37.668Z,6.78
2018-12-02T12:53:06.459Z,7.53
2018-12-02T12:55:35.130Z,7.35
2018-12-02T12:58:03.831Z,7.62
2018-12-02T13:00:32.542Z,7.20
2018-12-02T13:03:01.834Z,6.35
2018-12-02T13:05:31.505Z,7.70
2018-12-02T13:08:00.842Z,6.62
2018-12-02T13:10:29.738Z,6.33
2018-12-02T13:12:58.457Z,7.00
2018-12-02T13:15:27.716Z,11.38
2018-12-02T13:17:59.467Z,7.47
2018-12-02T13:20:32.661Z,7.97
2018-12-02T13:23:02.029Z,6.00
2018-12-02T13:25:31.974Z,6.50
2018-12-02T13:28:00.654Z,6.58
2018-12-02T13:30:29.370Z,5.87
2018-12-02T13:32:58.045Z,6.58
2018-12-02T13:35:26.753Z,5.67
2018-12-02T13:37:55.413Z,6.00
2018-12-02T13:40:24.378Z,6.87
2018-12-02T13:43:00.241Z,6.67
2018-12-02T13:45:30.092Z,6.57
2018-12-02T13:47:58.821Z,5.15
2018-12-02T13:50:27.706Z,6.78
2018-12-02T13:52:57.769Z,6.58
2018-12-02T13:55:29.814Z,6.22
2018-12-02T13:57:59.510Z,6.25
2018-12-02T14:00:28.794Z,7.05
2018-12-02T14:03:03.633Z,6.12
2018-12-02T14:05:32.340Z,5.90
2018-12-02T14:08:01.054Z,6.87
2018-12-02T14:10:29.757Z,6.70
2018-12-02T14:13:02.957Z,6.33
2018-12-02T14:15:51.994Z,6.28
2018-12-02T14:18:26.550Z,6.70
2018-12-02T14:20:56.556Z,6.80
2018-12-02T14:23:25.738Z,6.90
2018-12-02T14:25:56.185Z,5.55
2018-12-02T14:28:28.962Z,5.70
2018-12-02T14:30:57.756Z,5.33
2018-12-02T14:33:27.169Z,5.87
2018-12-02T14:35:56.590Z,6.65
2018-12-02T14:38:26.097Z,6.70
2018-12-02T14:40:55.355Z,5.90
2018-12-02T14:43:24.913Z,5.83
2018-12-02T14:45:53.911Z,6.95
2018-12-02T14:48:22.665Z,6.37
2018-12-02T14:50:51.321Z,6.10
2018-12-02T14:53:20.031Z,6.53
2018-12-02T14:55:49.325Z,6.65
2018-12-02T14:58:18.743Z,7.08
2018-12-02T15:00:47.417Z,5.90
2018-12-02T15:03:16.751Z,6.35
2018-12-02T15:05:45.425Z,6.50
2018-12-02T15:08:14.153Z,6.47
2018-12-02T15:10:43.645Z,6.08
2018-12-02T15:13:12.328Z,5.45
2018-12-02T15:15:41.683Z,5.47
2018-12-02T15:18:11.210Z,5.72
2018-12-02T15:20:39.936Z,7.00
2018-12-02T15:23:09.917Z,6.25
2018-12-02T15:25:39.556Z,5.65
2018-12-02T15:28:08.247Z,5.83
2018-12-02T15:30:36.917Z,5.75
2018-12-02T15:33:06.898Z,7.45
2018-12-02T15:35:35.600Z,5.72
2018-12-02T15:38:04.295Z,6.58
2018-12-02T15:40:33.606Z,5.87
2018-12-02T15:43:02.302Z,5.75
2018-12-02T15:45:31.055Z,6.67
2018-12-02T15:47:59.784Z,5.65
2018-12-02T15:50:29.132Z,6.22
2018-12-02T15:52:58.314Z,6.03
2018-12-02T15:55:30.481Z,5.90
2018-12-02T15:58:00.110Z,6.85
2018-12-02T16:00:36.943Z,7.10
2018-12-02T16:03:06.394Z,6.12
2018-12-02T16:05:35.901Z,6.05
2018-12-02T16:08:04.614Z,6.17
2018-12-02T16:10:34.402Z,5.65
2018-12-02T16:13:03.182Z,5.55
2018-12-02T16:15:33.353Z,7.40
2018-12-02T16:18:02.166Z,5.97
2018-12-02T16:20:35.239Z,6.70
2018-12-02T16:23:04.734Z,5.58
2018-12-02T16:25:33.389Z,5.87
2018-12-02T16:28:02.098Z,6.55
2018-12-02T16:30:30.792Z,6.83
2018-12-02T16:33:00.105Z,5.70
2018-12-02T16:35:28.789Z,6.05
2018-12-02T16:37:57.489Z,6.60
2018-12-02T16:40:27.081Z,6.03
2018-12-02T16:42:57.845Z,5.80
2018-12-02T16:45:27.249Z,5.28
2018-12-02T16:47:57.274Z,6.70
2018-12-02T16:50:28.425Z,6.15
2018-12-02T16:53:14.110Z,5.40
2018-12-02T16:56:01.724Z,5.13
2018-12-02T16:58:42.731Z,6.37
2018-12-02T17:01:17.238Z,6.20
2018-12-02T17:03:46.009Z,6.62
2018-12-02T17:06:14.669Z,6.28
2018-12-02T17:08:43.343Z,5.28
2018-12-02T17:11:13.253Z,6.20
2018-12-02T17:13:42.116Z,4.97
2018-12-02T17:16:11.482Z,6.03
2018-12-02T17:18:42.031Z,5.22
2018-12-02T17:21:10.250Z,5.85
2018-12-02T17:23:38.967Z,5.72
2018-12-02T17:26:07.664Z,5.37
2018-12-02T17:28:37.669Z,5.35
2018-12-02T17:31:10.478Z,6.15
2018-12-02T17:33:39.215Z,5.92
2018-12-02T17:36:07.861Z,6.28
2018-12-02T17:38:36.534Z,5.83
2018-12-02T17:41:07.334Z,7.05
2018-12-02T17:43:36.230Z,6.12
2018-12-02T17:46:06.074Z,5.13
2018-12-02T17:48:35.246Z,6.62
2018-12-02T17:51:03.953Z,6.35
2018-12-02T17:53:33.259Z,6.83
2018-12-02T17:56:01.950Z,6.00
2018-12-02T17:58:31.194Z,6.65
2018-12-02T18:01:00.673Z,5.85
2018-12-02T18:03:31.732Z,6.12
2018-12-02T18:06:00.429Z,6.08
2018-12-02T18:08:29.713Z,6.95
2018-12-02T18:10:59.047Z,6.25
2018-12-02T18:13:27.748Z,6.50
2018-12-02T18:15:56.912Z,5.80
2018-12-02T18:18:26.302Z,5.12
2018-12-02T18:20:55.677Z,6.35
2018-12-02T18:23:24.333Z,5.03
2018-12-02T18:25:53.254Z,5.97
2018-12-02T18:28:22.597Z,5.55
2018-12-02T18:30:52.620Z,5.70
2018-12-02T18:33:21.310Z,6.07
2018-12-02T18:36:06.892Z,5.70
2018-12-02T18:38:37.145Z,5.50
2018-12-02T18:41:15.288Z,6.10
2018-12-02T18:43:44.562Z,4.97
2018-12-02T18:46:15.038Z,4.78
2018-12-02T18:48:43.705Z,5.05
2018-12-02T18:51:12.397Z,4.85
2018-12-02T18:53:41.905Z,5.87
2018-12-02T18:56:16.347Z,4.90
2018-12-02T18:58:39.412Z,5.67
2018-12-02T19:01:08.114Z,5.87
2018-12-02T19:03:36.766Z,5.27
2018-12-02T19:06:05.941Z,5.00
2018-12-02T19:08:34.594Z,5.87
2018-12-02T19:11:03.351Z,5.25
2018-12-02T19:13:32.088Z,5.25
2018-12-02T19:16:01.440Z,5.17
2018-12-02T19:18:30.174Z,6.03
2018-12-02T19:21:00.913Z,5.40
2018-12-02T19:23:32.529Z,5.17
2018-12-02T19:26:01.516Z,5.75
2018-12-02T19:28:30.169Z,5.00
2018-12-02T19:30:58.889Z,4.95
2018-12-02T19:33:27.581Z,5.53
2018-12-02T19:35:59.661Z,5.17
2018-12-02T19:38:28.328Z,5.33
2018-12-02T19:40:56.993Z,5.80
2018-12-02T19:43:25.697Z,5.35
2018-12-02T19:45:54.847Z,5.50
2018-12-02T19:48:23.574Z,5.70
2018-12-02T19:50:52.227Z,6.12
2018-12-02T19:53:22.380Z,6.28
2018-12-02T19:55:51.880Z,5.77
2018-12-02T19:58:21.278Z,6.25
2018-12-02T20:00:49.957Z,5.62
2018-12-02T20:03:19.449Z,5.85
2018-12-02T20:05:49.128Z,5.58
2018-12-02T20:08:18.142Z,5.28
2018-12-02T20:10:51.709Z,4.67
2018-12-02T20:13:21.269Z,5.72
2018-12-02T20:15:56.358Z,6.90
2018-12-02T20:18:25.188Z,5.22
2018-12-02T20:20:56.325Z,5.70
2018-12-02T20:23:30.419Z,5.30
2018-12-02T20:26:00.449Z,4.95
2018-12-02T20:28:35.729Z,4.95
2018-12-02T20:31:08.942Z,4.40
2018-12-02T20:33:38.389Z,6.03
2018-12-02T20:36:08.062Z,5.25
2018-12-02T20:38:36.816Z,5.20
2018-12-02T20:41:05.656Z,5.72
2018-12-02T20:43:35.631Z,4.90
2018-12-02T20:46:04.793Z,5.15
2018-12-02T20:48:33.998Z,5.42
2018-12-02T20:51:03.181Z,5.08
2018-12-02T20:53:31.869Z,6.03
2018-12-02T20:56:02.065Z,6.22
2018-12-02T20:58:31.254Z,5.00
2018-12-02T21:00:59.895Z,5.00
2018-12-02T21:03:31.192Z,4.80
2018-12-02T21:06:11.134Z,5.37
2018-12-02T21:08:39.905Z,4.67
2018-12-02T21:11:10.713Z,5.67
2018-12-02T21:13:39.419Z,5.80
2018-12-02T21:16:08.119Z,4.95
2018-12-02T21:18:36.809Z,5.75
2018-12-02T21:21:05.941Z,4.92
2018-12-02T21:23:35.510Z,4.85
2018-12-02T21:26:05.226Z,4.90
2018-12-02T21:28:33.941Z,5.53
2018-12-02T21:31:02.597Z,5.75
2018-12-02T21:33:31.354Z,5.62
2018-12-02T21:36:01.561Z,6.08
2018-12-02T21:38:31.235Z,5.10
2018-12-02T21:40:59.883Z,5.62
2018-12-02T21:43:28.545Z,5.92
2018-12-02T21:45:57.305Z,4.90
2018-12-02T21:48:25.989Z,4.10
2018-12-02T21:50:55.882Z,5.28
2018-12-02T21:53:25.393Z,4.65
2018-12-02T21:55:54.943Z,5.28
2018-12-02T21:58:23.597Z,4.47
2018-12-02T22:00:57.577Z,4.62
2018-12-02T22:03:26.292Z,5.40
2018-12-02T22:05:55.443Z,5.12
2018-12-02T22:08:24.201Z,5.20
2018-12-02T22:10:53.874Z,5.05
2018-12-02T22:13:23.331Z,4.58
2018-12-02T22:15:52.014Z,4.85
2018-12-02T22:18:20.757Z,5.20
2018-12-02T22:20:49.450Z,4.85
2018-12-02T22:23:18.091Z,4.80
2018-12-02T22:25:48.181Z,5.33
2018-12-02T22:28:17.457Z,4.92
2018-12-02T22:30:46.276Z,5.17
2018-12-02T22:33:14.909Z,5.92
2018-12-02T22:35:45.613Z,5.17
2018-12-02T22:38:14.973Z,5.87
2018-12-02T22:40:44.273Z,5.00
2018-12-02T22:43:12.953Z,5.35
2018-12-02T22:45:41.643Z,5.03
2018-12-02T22:48:10.341Z,5.50
2018-12-02T22:50:39.127Z,4.97
2018-12-02T22:53:07.911Z,5.17
2018-12-02T22:55:36.601Z,5.62
2018-12-02T22:58:05.726Z,5.67
2018-12-02T23:00:39.698Z,5.70
2018-12-02T23:03:11.684Z,4.85
2018-12-02T23:05:42.238Z,5.03
2018-12-02T23:08:10.898Z,5.58
2018-12-02T23:10:40.020Z,5.12
2018-12-02T23:13:09.820Z,4.60
2018-12-02T23:15:40.589Z,5.95
2018-12-02T23:18:10.562Z,5.12
2018-12-02T23:20:40.014Z,4.87
2018-12-02T23:23:08.701Z,4.90
2018-12-02T23:25:38.501Z,5.10
2018-12-02T23:28:07.906Z,4.90
2018-12-02T23:30:37.160Z,5.75
2018-12-02T23:33:06.608Z,4.45
2018-12-02T23:35:35.749Z,4.65
2018-12-02T23:38:05.890Z,5.72
2018-12-02T23:40:35.770Z,5.93
2018-12-02T23:43:50.678Z,4.80
2018-12-02T23:46:32.455Z,5.30
2018-12-02T23:49:14.082Z,5.40
2018-12-02T23:51:55.402Z,5.03
2018-12-02T23:54:36.805Z,6.08
2018-12-02T23:57:17.940Z,5.33
2018-12-02T23:59:59.505Z,5.78
